sensor_id;sensor_type;location;lat;lon;timestamp;pressure;altitude;pressure_sealevel;temperature;humidity
52137;BME280;38130;49.012;8.368;2022-10-03T00:02:19;101135.56;;;11.21;100.00
52137;BME280;38130;49.012;8.368;2022-10-03T00:05:22;101129.69;;;11.15;100.00
52137;BME280;38130;49.012;8.368;2022-10-03T00:08:14;101141.97;;;11.11;100.00
52137;BME280;38130;49.012;8.368;2022-10-03T00:11:06;101150.78;;;11.07;100.00
52137;BME280;38130;49.012;8.368;2022-10-03T00:14:17;101140.44;;;11.04;100.00
52137;BME280;38130;49.012;8.368;2022-10-03T00:17:00;101157.94;;;11.00;100.00
52137;BME280;38130;49.012;8.368;2022-10-03T00:27:38;101159.56;;;11.03;100.00
52137;BME280;38130;49.012;8.368;2022-10-03T00:30:23;101156.16;;;11.01;100.00
52137;BME280;38130;49.012;8.368;2022-10-03T00:33:14;101160.69;;;10.96;100.00
52137;BME280;38130;49.012;8.368;2022-10-03T00:36:07;101161.75;;;10.89;100.00
52137;BME280;38130;49.012;8.368;2022-10-03T00:41:37;101158.31;;;10.88;100.00
52137;BME280;38130;49.012;8.368;2022-10-03T00:52:50;101163.50;;;10.88;100.00
52137;BME280;38130;49.012;8.368;2022-10-03T00:58:05;101182.63;;;10.87;100.00
52137;BME280;38130;49.012;8.368;2022-10-03T01:00:41;101184.34;;;10.88;100.00
52137;BME280;38130;49.012;8.368;2022-10-03T01:08:59;101184.84;;;10.99;100.00
52137;BME280;38130;49.012;8.368;2022-10-03T01:11:38;101190.22;;;10.95;100.00
52137;BME280;38130;49.012;8.368;2022-10-03T01:14:27;101206.75;;;10.94;100.00
52137;BME280;38130;49.012;8.368;2022-10-03T01:22:47;101214.28;;;11.01;100.00
52137;BME280;38130;49.012;8.368;2022-10-03T01:30:50;101217.56;;;11.08;100.00
52137;BME280;38130;49.012;8.368;2022-10-03T01:33:36;101225.94;;;11.18;100.00
52137;BME280;38130;49.012;8.368;2022-10-03T01:39:06;101217.56;;;11.08;100.00
52137;BME280;38130;49.012;8.368;2022-10-03T01:46:49;101211.66;;;11.03;100.00
52137;BME280;38130;49.012;8.368;2022-10-03T01:49:47;101216.72;;;11.07;100.00
52137;BME280;38130;49.012;8.368;2022-10-03T01:52:35;101216.56;;;11.12;100.00
52137;BME280;38130;49.012;8.368;2022-10-03T01:55:35;101211.97;;;11.20;100.00
52137;BME280;38130;49.012;8.368;2022-10-03T02:00:51;101210.13;;;11.24;100.00
52137;BME280;38130;49.012;8.368;2022-10-03T02:03:29;101214.50;;;11.23;100.00
52137;BME280;38130;49.012;8.368;2022-10-03T02:06:08;101224.19;;;11.18;100.00
52137;BME280;38130;49.012;8.368;2022-10-03T02:11:08;101223.44;;;11.15;100.00
52137;BME280;38130;49.012;8.368;2022-10-03T02:13:52;101219.13;;;11.14;100.00
52137;BME280;38130;49.012;8.368;2022-10-03T02:16:42;101214.94;;;11.09;100.00
52137;BME280;38130;49.012;8.368;2022-10-03T02:21:59;101214.94;;;11.09;100.00
52137;BME280;38130;49.012;8.368;2022-10-03T02:27:19;101220.97;;;11.10;100.00
52137;BME280;38130;49.012;8.368;2022-10-03T02:30:25;101219.22;;;11.10;100.00
52137;BME280;38130;49.012;8.368;2022-10-03T02:33:39;101216.63;;;11.10;100.00
52137;BME280;38130;49.012;8.368;2022-10-03T02:36:19;101207.22;;;11.06;100.00
52137;BME280;38130;49.012;8.368;2022-10-03T02:42:21;101210.63;;;11.08;100.00
52137;BME280;38130;49.012;8.368;2022-10-03T02:45:06;101209.81;;;11.06;100.00
52137;BME280;38130;49.012;8.368;2022-10-03T02:54:19;101200.16;;;11.10;100.00
52137;BME280;38130;49.012;8.368;2022-10-03T02:56:49;101195.69;;;11.14;100.00
52137;BME280;38130;49.012;8.368;2022-10-03T03:02:33;101200.91;;;11.14;100.00
52137;BME280;38130;49.012;8.368;2022-10-03T03:13:54;101211.09;;;11.20;100.00
52137;BME280;38130;49.012;8.368;2022-10-03T03:19:45;101207.53;;;11.24;100.00
52137;BME280;38130;49.012;8.368;2022-10-03T03:27:48;101202.25;;;11.25;100.00
52137;BME280;38130;49.012;8.368;2022-10-03T03:30:21;101209.06;;;11.29;100.00
52137;BME280;38130;49.012;8.368;2022-10-03T03:33:12;101210.78;;;11.30;100.00
52137;BME280;38130;49.012;8.368;2022-10-03T03:35:53;101209.06;;;11.29;100.00
52137;BME280;38130;49.012;8.368;2022-10-03T03:38:36;101217.72;;;11.30;100.00
52137;BME280;38130;49.012;8.368;2022-10-03T03:41:35;101221.97;;;11.32;100.00
52137;BME280;38130;49.012;8.368;2022-10-03T03:44:27;101221.19;;;11.30;100.00
52137;BME280;38130;49.012;8.368;2022-10-03T03:47:11;101223.78;;;11.30;100.00
52137;BME280;38130;49.012;8.368;2022-10-03T03:49:55;101224.69;;;11.29;100.00
52137;BME280;38130;49.012;8.368;2022-10-03T03:55:29;101223.06;;;11.27;100.00
52137;BME280;38130;49.012;8.368;2022-10-03T03:58:20;101226.41;;;11.30;100.00
52137;BME280;38130;49.012;8.368;2022-10-03T04:01:14;101228.09;;;11.31;100.00
52137;BME280;38130;49.012;8.368;2022-10-03T04:12:21;101228.72;;;11.39;100.00
52137;BME280;38130;49.012;8.368;2022-10-03T04:21:04;101238.34;;;11.37;100.00
52137;BME280;38130;49.012;8.368;2022-10-03T04:29:23;101244.19;;;11.44;100.00
52137;BME280;38130;49.012;8.368;2022-10-03T04:34:54;101242.50;;;11.43;100.00
52137;BME280;38130;49.012;8.368;2022-10-03T04:37:33;101251.31;;;11.39;100.00
52137;BME280;38130;49.012;8.368;2022-10-03T04:40:49;101258.34;;;11.35;100.00
52137;BME280;38130;49.012;8.368;2022-10-03T04:43:36;101257.59;;;11.32;100.00
52137;BME280;38130;49.012;8.368;2022-10-03T04:49:42;101255.91;;;11.31;100.00
52137;BME280;38130;49.012;8.368;2022-10-03T04:52:56;101255.09;;;11.29;100.00
52137;BME280;38130;49.012;8.368;2022-10-03T04:55:39;101252.50;;;11.29;100.00
52137;BME280;38130;49.012;8.368;2022-10-03T05:03:40;101243.88;;;11.27;100.00
52137;BME280;38130;49.012;8.368;2022-10-03T05:18:04;101262.44;;;11.16;100.00
52137;BME280;38130;49.012;8.368;2022-10-03T05:20:48;101268.56;;;11.15;100.00
52137;BME280;38130;49.012;8.368;2022-10-03T05:26:46;101284.03;;;11.20;100.00
52137;BME280;38130;49.012;8.368;2022-10-03T05:34:57;101289.16;;;11.23;100.00
52137;BME280;38130;49.012;8.368;2022-10-03T05:45:47;101297.09;;;11.18;100.00
52137;BME280;38130;49.012;8.368;2022-10-03T05:54:40;101293.59;;;11.19;100.00
52137;BME280;38130;49.012;8.368;2022-10-03T06:05:23;101316.91;;;11.24;100.00
52137;BME280;38130;49.012;8.368;2022-10-03T06:11:01;101321.16;;;11.26;100.00
52137;BME280;38130;49.012;8.368;2022-10-03T06:31:41;101350.63;;;11.28;100.00
52137;BME280;38130;49.012;8.368;2022-10-03T06:37:16;101343.19;;;11.44;100.00
52137;BME280;38130;49.012;8.368;2022-10-03T06:46:05;101352.03;;;11.66;100.00
52137;BME280;38130;49.012;8.368;2022-10-03T06:49:03;101350.16;;;11.72;100.00
52137;BME280;38130;49.012;8.368;2022-10-03T07:08:17;101364.66;;;12.07;100.00
52137;BME280;38130;49.012;8.368;2022-10-03T07:22:22;101371.25;;;12.18;100.00
52137;BME280;38130;49.012;8.368;2022-10-03T07:30:49;101374.59;;;12.22;100.00
52137;BME280;38130;49.012;8.368;2022-10-03T07:33:49;101385.78;;;12.25;100.00
52137;BME280;38130;49.012;8.368;2022-10-03T07:44:57;101395.19;;;12.29;100.00
52137;BME280;38130;49.012;8.368;2022-10-03T07:50:43;101403.19;;;12.25;100.00
52137;BME280;38130;49.012;8.368;2022-10-03T08:06:12;101405.22;;;12.42;100.00
52137;BME280;38130;49.012;8.368;2022-10-03T08:11:47;101402.59;;;12.42;100.00
52137;BME280;38130;49.012;8.368;2022-10-03T08:14:31;101401.97;;;12.35;100.00
52137;BME280;38130;49.012;8.368;2022-10-03T08:31:32;101413.53;;;12.53;100.00
52137;BME280;38130;49.012;8.368;2022-10-03T08:39:57;101422.91;;;12.83;100.00
52137;BME280;38130;49.012;8.368;2022-10-03T08:54:06;101430.03;;;13.28;100.00
52137;BME280;38130;49.012;8.368;2022-10-03T08:57:03;101423.56;;;13.13;100.00
52137;BME280;38130;49.012;8.368;2022-10-03T09:00:01;101425.91;;;13.21;100.00
52137;BME280;38130;49.012;8.368;2022-10-03T09:14:44;101420.69;;;13.21;100.00
52137;BME280;38130;49.012;8.368;2022-10-03T09:17:48;101413.69;;;13.22;100.00
52137;BME280;38130;49.012;8.368;2022-10-03T09:20:42;101417.03;;;13.25;100.00
52137;BME280;38130;49.012;8.368;2022-10-03T09:29:32;101416.16;;;13.26;100.00
52137;BME280;38130;49.012;8.368;2022-10-03T09:47:37;101407.03;;;13.82;100.00
52137;BME280;38130;49.012;8.368;2022-10-03T09:53:33;101404.56;;;14.21;100.00
52137;BME280;38130;49.012;8.368;2022-10-03T09:56:35;101410.81;;;14.17;100.00
52137;BME280;38130;49.012;8.368;2022-10-03T10:16:44;101417.38;;;14.27;100.00
52137;BME280;38130;49.012;8.368;2022-10-03T10:25:04;101408.09;;;14.40;100.00
52137;BME280;38130;49.012;8.368;2022-10-03T10:54:17;101407.88;;;15.24;100.00
52137;BME280;38130;49.012;8.368;2022-10-03T10:57:03;101404.34;;;15.25;100.00
52137;BME280;38130;49.012;8.368;2022-10-03T11:23:18;101392.00;;;16.18;90.09
52137;BME280;38130;49.012;8.368;2022-10-03T11:31:39;101398.97;;;16.20;87.80
52137;BME280;38130;49.012;8.368;2022-10-03T11:38:02;101379.41;;;16.25;90.28
52137;BME280;38130;49.012;8.368;2022-10-03T11:43:17;101375.78;;;16.62;84.42
52137;BME280;38130;49.012;8.368;2022-10-03T11:46:07;101377.13;;;16.87;83.42
52137;BME280;38130;49.012;8.368;2022-10-03T11:49:00;101374.75;;;16.82;77.94
52137;BME280;38130;49.012;8.368;2022-10-03T11:51:43;101379.78;;;16.69;78.66
52137;BME280;38130;49.012;8.368;2022-10-03T11:54:23;101372.69;;;16.54;77.26
52137;BME280;38130;49.012;8.368;2022-10-03T11:57:20;101370.31;;;16.32;80.17
52137;BME280;38130;49.012;8.368;2022-10-03T12:00:03;101356.56;;;16.44;84.56
52137;BME280;38130;49.012;8.368;2022-10-03T12:03:05;101364.16;;;16.66;83.34
52137;BME280;38130;49.012;8.368;2022-10-03T12:06:12;101357.81;;;17.03;77.99
52137;BME280;38130;49.012;8.368;2022-10-03T12:09:16;101357.25;;;17.14;78.85
52137;BME280;38130;49.012;8.368;2022-10-03T12:12:15;101350.28;;;17.13;76.05
52137;BME280;38130;49.012;8.368;2022-10-03T12:14:48;101357.75;;;17.05;79.34
52137;BME280;38130;49.012;8.368;2022-10-03T12:17:36;101362.06;;;16.90;80.36
52137;BME280;38130;49.012;8.368;2022-10-03T12:20:56;101358.22;;;16.63;80.86
52137;BME280;38130;49.012;8.368;2022-10-03T12:25:52;101349.69;;;16.42;88.75
52137;BME280;38130;49.012;8.368;2022-10-03T12:28:35;101353.88;;;16.29;87.34
52137;BME280;38130;49.012;8.368;2022-10-03T12:31:20;101347.84;;;16.09;89.12
52137;BME280;38130;49.012;8.368;2022-10-03T12:34:17;101343.53;;;16.08;90.76
52137;BME280;38130;49.012;8.368;2022-10-03T12:36:49;101336.56;;;16.07;92.25
52137;BME280;38130;49.012;8.368;2022-10-03T12:39:33;101335.50;;;16.11;91.82
52137;BME280;38130;49.012;8.368;2022-10-03T12:42:29;101334.66;;;16.11;90.69
52137;BME280;38130;49.012;8.368;2022-10-03T12:48:37;101336.44;;;16.10;90.37
52137;BME280;38130;49.012;8.368;2022-10-03T12:50:56;101326.47;;;16.17;89.00
52137;BME280;38130;49.012;8.368;2022-10-03T12:56:41;101328.41;;;16.13;90.86
52137;BME280;38130;49.012;8.368;2022-10-03T13:02:16;101331.00;;;16.31;84.26
52137;BME280;38130;49.012;8.368;2022-10-03T13:07:47;101317.53;;;16.54;77.17
52137;BME280;38130;49.012;8.368;2022-10-03T13:10:54;101318.91;;;16.61;79.61
52137;BME280;38130;49.012;8.368;2022-10-03T13:14:40;101308.56;;;16.91;77.01
52137;BME280;38130;49.012;8.368;2022-10-03T13:20:11;101311.50;;;17.32;69.14
52137;BME280;38130;49.012;8.368;2022-10-03T13:25:39;101309.44;;;17.08;64.06
52137;BME280;38130;49.012;8.368;2022-10-03T13:28:28;101315.84;;;16.86;68.08
52137;BME280;38130;49.012;8.368;2022-10-03T13:31:10;101306.97;;;17.04;68.91
52137;BME280;38130;49.012;8.368;2022-10-03T13:33:43;101306.72;;;17.09;65.79
52137;BME280;38130;49.012;8.368;2022-10-03T13:36:33;101302.38;;;17.24;62.62
52137;BME280;38130;49.012;8.368;2022-10-03T13:39:22;101296.50;;;17.03;66.29
52137;BME280;38130;49.012;8.368;2022-10-03T13:42:21;101293.81;;;17.36;66.14
52137;BME280;38130;49.012;8.368;2022-10-03T13:44:59;101292.81;;;17.84;61.34
52137;BME280;38130;49.012;8.368;2022-10-03T13:53:22;101287.22;;;18.62;57.86
52137;BME280;38130;49.012;8.368;2022-10-03T13:55:53;101293.34;;;18.76;56.76
52137;BME280;38130;49.012;8.368;2022-10-03T13:58:41;101292.69;;;18.87;55.49
52137;BME280;38130;49.012;8.368;2022-10-03T14:04:28;101299.41;;;18.78;55.86
52137;BME280;38130;49.012;8.368;2022-10-03T14:15:34;101285.69;;;19.00;54.17
52137;BME280;38130;49.012;8.368;2022-10-03T14:20:41;101284.31;;;19.22;55.01
52137;BME280;38130;49.012;8.368;2022-10-03T14:23:33;101282.13;;;19.55;52.85
52137;BME280;38130;49.012;8.368;2022-10-03T14:26:08;101277.53;;;19.59;52.79
52137;BME280;38130;49.012;8.368;2022-10-03T14:31:36;101281.41;;;20.31;50.60
52137;BME280;38130;49.012;8.368;2022-10-03T14:34:15;101271.88;;;20.16;50.18
52137;BME280;38130;49.012;8.368;2022-10-03T14:36:54;101275.38;;;19.91;53.13
52137;BME280;38130;49.012;8.368;2022-10-03T14:45:27;101278.25;;;18.93;53.65
52137;BME280;38130;49.012;8.368;2022-10-03T14:48:11;101279.44;;;18.74;53.71
52137;BME280;38130;49.012;8.368;2022-10-03T14:50:40;101264.84;;;18.54;55.06
52137;BME280;38130;49.012;8.368;2022-10-03T14:53:18;101266.06;;;18.49;54.65
52137;BME280;38130;49.012;8.368;2022-10-03T14:56:08;101262.41;;;18.37;55.70
52137;BME280;38130;49.012;8.368;2022-10-03T14:58:44;101261.06;;;18.30;54.72
52137;BME280;38130;49.012;8.368;2022-10-03T15:01:14;101259.06;;;18.05;54.86
52137;BME280;38130;49.012;8.368;2022-10-03T15:03:54;101259.25;;;17.88;58.40
52137;BME280;38130;49.012;8.368;2022-10-03T15:06:36;101250.31;;;17.90;56.65
52137;BME280;38130;49.012;8.368;2022-10-03T15:09:41;101262.06;;;17.85;56.60
52137;BME280;38130;49.012;8.368;2022-10-03T15:12:17;101249.84;;;17.84;58.25
52137;BME280;38130;49.012;8.368;2022-10-03T15:14:56;101249.75;;;17.85;58.73
52137;BME280;38130;49.012;8.368;2022-10-03T15:17:33;101243.22;;;17.77;57.13
52137;BME280;38130;49.012;8.368;2022-10-03T15:20:03;101249.09;;;17.66;59.26
52137;BME280;38130;49.012;8.368;2022-10-03T15:22:33;101249.34;;;17.61;60.43
52137;BME280;38130;49.012;8.368;2022-10-03T15:25:05;101248.03;;;17.54;60.64
52137;BME280;38130;49.012;8.368;2022-10-03T15:27:34;101241.50;;;17.46;61.73
52137;BME280;38130;49.012;8.368;2022-10-03T15:30:03;101246.81;;;17.30;63.12
52137;BME280;38130;49.012;8.368;2022-10-03T15:32:37;101241.28;;;17.34;62.84
52137;BME280;38130;49.012;8.368;2022-10-03T15:35:05;101244.69;;;17.36;62.48
52137;BME280;38130;49.012;8.368;2022-10-03T15:37:35;101241.97;;;17.38;61.40
52137;BME280;38130;49.012;8.368;2022-10-03T15:40:09;101236.53;;;17.41;61.55
52137;BME280;38130;49.012;8.368;2022-10-03T15:43:05;101236.44;;;17.43;62.49
52137;BME280;38130;49.012;8.368;2022-10-03T15:45:35;101238.16;;;17.28;62.33
52137;BME280;38130;49.012;8.368;2022-10-03T15:48:04;101239.78;;;17.15;64.11
52137;BME280;38130;49.012;8.368;2022-10-03T15:50:39;101239.97;;;17.12;65.73
52137;BME280;38130;49.012;8.368;2022-10-03T15:53:27;101234.34;;;17.02;64.96
52137;BME280;38130;49.012;8.368;2022-10-03T15:56:18;101228.69;;;16.78;63.86
52137;BME280;38130;49.012;8.368;2022-10-03T15:58:51;101219.75;;;16.65;64.01
52137;BME280;38130;49.012;8.368;2022-10-03T16:04:17;101228.56;;;16.48;68.80
52137;BME280;38130;49.012;8.368;2022-10-03T16:14:26;101226.94;;;16.30;68.25
52137;BME280;38130;49.012;8.368;2022-10-03T16:16:58;101236.78;;;16.25;69.16
52137;BME280;38130;49.012;8.368;2022-10-03T16:19:40;101237.91;;;16.21;70.70
52137;BME280;38130;49.012;8.368;2022-10-03T16:22:36;101235.06;;;16.08;72.41
52137;BME280;38130;49.012;8.368;2022-10-03T16:27:50;101237.63;;;15.92;73.04
52137;BME280;38130;49.012;8.368;2022-10-03T16:30:25;101231.69;;;15.88;73.56
52137;BME280;38130;49.012;8.368;2022-10-03T16:33:03;101222.53;;;15.80;74.80
52137;BME280;38130;49.012;8.368;2022-10-03T16:35:53;101227.56;;;15.67;77.02
52137;BME280;38130;49.012;8.368;2022-10-03T16:38:25;101228.69;;;15.62;78.22
52137;BME280;38130;49.012;8.368;2022-10-03T16:41:01;101221.03;;;15.57;78.78
52137;BME280;38130;49.012;8.368;2022-10-03T16:43:30;101216.09;;;15.51;80.82
52137;BME280;38130;49.012;8.368;2022-10-03T16:46:00;101225.41;;;15.39;81.20
52137;BME280;38130;49.012;8.368;2022-10-03T16:48:32;101217.09;;;15.31;83.47
52137;BME280;38130;49.012;8.368;2022-10-03T16:53:49;101215.84;;;15.21;87.85
52137;BME280;38130;49.012;8.368;2022-10-03T16:56:22;101210.84;;;15.16;88.34
52137;BME280;38130;49.012;8.368;2022-10-03T16:58:52;101203.09;;;15.13;88.33
52137;BME280;38130;49.012;8.368;2022-10-03T17:01:33;101219.91;;;15.09;89.54
52137;BME280;38130;49.012;8.368;2022-10-03T17:04:23;101215.13;;;15.00;87.24
52137;BME280;38130;49.012;8.368;2022-10-03T17:06:58;101213.53;;;14.96;88.70
52137;BME280;38130;49.012;8.368;2022-10-03T17:09:38;101203.28;;;14.91;90.08
52137;BME280;38130;49.012;8.368;2022-10-03T17:12:15;101206.84;;;14.90;92.78
52137;BME280;38130;49.012;8.368;2022-10-03T17:14:42;101208.00;;;14.85;92.61
52137;BME280;38130;49.012;8.368;2022-10-03T17:17:20;101204.88;;;14.77;93.99
52137;BME280;38130;49.012;8.368;2022-10-03T17:19:58;101202.63;;;14.69;91.40
52137;BME280;38130;49.012;8.368;2022-10-03T17:22:35;101207.28;;;14.62;91.54
52137;BME280;38130;49.012;8.368;2022-10-03T17:28:22;101202.88;;;14.44;95.12
52137;BME280;38130;49.012;8.368;2022-10-03T17:30:54;101200.66;;;14.35;93.67
52137;BME280;38130;49.012;8.368;2022-10-03T17:33:34;101201.84;;;14.28;95.69
52137;BME280;38130;49.012;8.368;2022-10-03T17:36:34;101201.22;;;14.23;95.81
52137;BME280;38130;49.012;8.368;2022-10-03T17:39:03;101201.63;;;14.14;96.47
52137;BME280;38130;49.012;8.368;2022-10-03T17:44:32;101186.47;;;14.01;95.42
52137;BME280;38130;49.012;8.368;2022-10-03T17:47:16;101186.75;;;13.95;98.37
52137;BME280;38130;49.012;8.368;2022-10-03T17:49:51;101183.50;;;13.90;100.00
52137;BME280;38130;49.012;8.368;2022-10-03T17:52:23;101177.72;;;13.82;100.00
52137;BME280;38130;49.012;8.368;2022-10-03T17:54:54;101178.06;;;13.74;100.00
52137;BME280;38130;49.012;8.368;2022-10-03T17:57:30;101179.25;;;13.67;100.00
52137;BME280;38130;49.012;8.368;2022-10-03T18:00:02;101183.97;;;13.59;100.00
52137;BME280;38130;49.012;8.368;2022-10-03T18:05:21;101171.34;;;13.48;100.00
52137;BME280;38130;49.012;8.368;2022-10-03T18:07:51;101169.91;;;13.41;100.00
52137;BME280;38130;49.012;8.368;2022-10-03T18:10:41;101176.50;;;13.30;100.00
52137;BME280;38130;49.012;8.368;2022-10-03T18:13:22;101179.34;;;13.24;100.00
52137;BME280;38130;49.012;8.368;2022-10-03T18:18:44;101179.81;;;13.11;100.00
52137;BME280;38130;49.012;8.368;2022-10-03T18:21:26;101182.50;;;13.10;100.00
52137;BME280;38130;49.012;8.368;2022-10-03T18:26:41;101185.16;;;13.08;100.00
52137;BME280;38130;49.012;8.368;2022-10-03T18:29:33;101191.34;;;13.06;100.00
52137;BME280;38130;49.012;8.368;2022-10-03T18:32:17;101200.16;;;13.03;100.00
52137;BME280;38130;49.012;8.368;2022-10-03T18:34:48;101196.78;;;13.01;100.00
52137;BME280;38130;49.012;8.368;2022-10-03T18:39:53;101198.28;;;12.85;100.00
52137;BME280;38130;49.012;8.368;2022-10-03T18:42:24;101183.75;;;12.78;100.00
52137;BME280;38130;49.012;8.368;2022-10-03T18:44:55;101183.09;;;12.73;100.00
52137;BME280;38130;49.012;8.368;2022-10-03T18:47:25;101176.41;;;12.66;100.00
52137;BME280;38130;49.012;8.368;2022-10-03T18:50:00;101178.25;;;12.64;100.00
52137;BME280;38130;49.012;8.368;2022-10-03T18:55:41;101186.28;;;12.57;100.00
52137;BME280;38130;49.012;8.368;2022-10-03T18:58:24;101181.19;;;12.54;100.00
52137;BME280;38130;49.012;8.368;2022-10-03T19:01:00;101170.31;;;12.43;100.00
52137;BME280;38130;49.012;8.368;2022-10-03T19:03:37;101181.84;;;12.38;100.00
52137;BME280;38130;49.012;8.368;2022-10-03T19:06:14;101182.94;;;12.30;100.00
52137;BME280;38130;49.012;8.368;2022-10-03T19:08:52;101179.63;;;12.27;100.00
52137;BME280;38130;49.012;8.368;2022-10-03T19:11:24;101177.38;;;12.18;100.00
52137;BME280;38130;49.012;8.368;2022-10-03T19:21:42;101174.69;;;12.19;100.00
52137;BME280;38130;49.012;8.368;2022-10-03T19:24:13;101173.97;;;12.16;100.00
52137;BME280;38130;49.012;8.368;2022-10-03T19:26:51;101174.84;;;12.15;100.00
52137;BME280;38130;49.012;8.368;2022-10-03T19:29:27;101172.34;;;12.12;100.00
52137;BME280;38130;49.012;8.368;2022-10-03T19:34:35;101178.72;;;12.05;100.00
52137;BME280;38130;49.012;8.368;2022-10-03T19:37:08;101179.69;;;12.02;100.00
52137;BME280;38130;49.012;8.368;2022-10-03T19:39:37;101180.59;;;12.01;100.00
52137;BME280;38130;49.012;8.368;2022-10-03T19:44:57;101182.38;;;11.99;100.00
52137;BME280;38130;49.012;8.368;2022-10-03T19:47:39;101182.44;;;11.97;100.00
52137;BME280;38130;49.012;8.368;2022-10-03T19:50:26;101172.13;;;11.94;100.00
52137;BME280;38130;49.012;8.368;2022-10-03T19:52:53;101168.78;;;11.91;100.00
52137;BME280;38130;49.012;8.368;2022-10-03T19:55:29;101178.53;;;11.86;100.00
52137;BME280;38130;49.012;8.368;2022-10-03T19:58:01;101175.91;;;11.86;100.00
52137;BME280;38130;49.012;8.368;2022-10-03T20:00:36;101178.53;;;11.86;100.00
52137;BME280;38130;49.012;8.368;2022-10-03T20:03:24;101170.78;;;11.83;100.00
52137;BME280;38130;49.012;8.368;2022-10-03T20:06:04;101169.22;;;11.77;100.00
52137;BME280;38130;49.012;8.368;2022-10-03T20:08:52;101169.28;;;11.76;100.00
52137;BME280;38130;49.012;8.368;2022-10-03T20:11:40;101161.53;;;11.74;100.00
52137;BME280;38130;49.012;8.368;2022-10-03T20:14:21;101174.84;;;11.65;100.00
52137;BME280;38130;49.012;8.368;2022-10-03T20:16:59;101177.75;;;11.57;100.00
52137;BME280;38130;49.012;8.368;2022-10-03T20:20:00;101177.06;;;11.52;100.00
52137;BME280;38130;49.012;8.368;2022-10-03T20:22:29;101169.38;;;11.48;100.00
52137;BME280;38130;49.012;8.368;2022-10-03T20:24:58;101173.84;;;11.44;100.00
52137;BME280;38130;49.012;8.368;2022-10-03T20:27:40;101159.28;;;11.38;100.00
52137;BME280;38130;49.012;8.368;2022-10-03T20:32:48;101152.56;;;11.31;100.00
52137;BME280;38130;49.012;8.368;2022-10-03T20:35:28;101153.41;;;11.32;100.00
52137;BME280;38130;49.012;8.368;2022-10-03T20:38:11;101143.94;;;11.29;100.00
52137;BME280;38130;49.012;8.368;2022-10-03T20:40:44;101150.97;;;11.27;100.00
52137;BME280;38130;49.012;8.368;2022-10-03T20:43:24;101151.06;;;11.24;100.00
52137;BME280;38130;49.012;8.368;2022-10-03T20:46:17;101155.44;;;11.24;100.00
52137;BME280;38130;49.012;8.368;2022-10-03T20:49:13;101153.81;;;11.20;100.00
52137;BME280;38130;49.012;8.368;2022-10-03T20:54:28;101151.38;;;11.15;100.00
52137;BME280;38130;49.012;8.368;2022-10-03T20:57:00;101150.63;;;11.12;100.00
52137;BME280;38130;49.012;8.368;2022-10-03T20:59:48;101141.97;;;11.11;100.00
52137;BME280;38130;49.012;8.368;2022-10-03T21:02:35;101147.22;;;11.09;100.00
52137;BME280;38130;49.012;8.368;2022-10-03T21:05:10;101139.53;;;11.06;100.00
52137;BME280;38130;49.012;8.368;2022-10-03T21:07:52;101139.66;;;11.02;100.00
52137;BME280;38130;49.012;8.368;2022-10-03T21:10:24;101141.66;;;10.94;100.00
52137;BME280;38130;49.012;8.368;2022-10-03T21:12:55;101142.69;;;10.88;100.00
52137;BME280;38130;49.012;8.368;2022-10-03T21:15:34;101137.59;;;10.85;100.00
52137;BME280;38130;49.012;8.368;2022-10-03T21:18:03;101135.94;;;10.83;100.00
52137;BME280;38130;49.012;8.368;2022-10-03T21:20:38;101129.94;;;10.80;100.00
52137;BME280;38130;49.012;8.368;2022-10-03T21:23:19;101126.47;;;10.80;100.00
52137;BME280;38130;49.012;8.368;2022-10-03T21:25:49;101129.94;;;10.80;100.00
52137;BME280;38130;49.012;8.368;2022-10-03T21:33:29;101123.19;;;10.75;100.00
52137;BME280;38130;49.012;8.368;2022-10-03T21:36:05;101129.41;;;10.69;100.00
52137;BME280;38130;49.012;8.368;2022-10-03T21:38:36;101125.25;;;10.64;100.00
52137;BME280;38130;49.012;8.368;2022-10-03T21:42:07;101123.84;;;10.54;100.00
52137;BME280;38130;49.012;8.368;2022-10-03T21:44:27;101123.28;;;10.44;100.00
52137;BME280;38130;49.012;8.368;2022-10-03T21:47:23;101117.44;;;10.36;100.00
52137;BME280;38130;49.012;8.368;2022-10-03T21:49:58;101121.09;;;10.30;100.00
52137;BME280;38130;49.012;8.368;2022-10-03T21:52:44;101114.28;;;10.26;100.00
52137;BME280;38130;49.012;8.368;2022-10-03T21:55:37;101110.91;;;10.23;100.00
52137;BME280;38130;49.012;8.368;2022-10-03T21:58:55;101114.56;;;10.15;100.00
52137;BME280;38130;49.012;8.368;2022-10-03T22:04:20;101101.72;;;10.11;100.00
52137;BME280;38130;49.012;8.368;2022-10-03T22:07:12;101103.53;;;10.07;100.00
52137;BME280;38130;49.012;8.368;2022-10-03T22:09:45;101097.63;;;10.02;100.00
52137;BME280;38130;49.012;8.368;2022-10-03T22:12:12;101097.72;;;9.99;100.00
52137;BME280;38130;49.012;8.368;2022-10-03T22:14:52;101102.94;;;9.98;100.00
52137;BME280;38130;49.012;8.368;2022-10-03T22:17:37;101103.09;;;9.91;100.00
52137;BME280;38130;49.012;8.368;2022-10-03T22:26:18;101084.50;;;9.76;100.00
52137;BME280;38130;49.012;8.368;2022-10-03T22:29:02;101096.69;;;9.74;100.00
52137;BME280;38130;49.012;8.368;2022-10-03T22:31:47;101089.88;;;9.70;100.00
52137;BME280;38130;49.012;8.368;2022-10-03T22:37:02;101085.78;;;9.61;100.00
52137;BME280;38130;49.012;8.368;2022-10-03T22:39:29;101080.66;;;9.58;100.00
52137;BME280;38130;49.012;8.368;2022-10-03T22:41:59;101091.19;;;9.53;100.00
52137;BME280;38130;49.012;8.368;2022-10-03T22:44:31;101082.66;;;9.50;100.00
52137;BME280;38130;49.012;8.368;2022-10-03T22:47:02;101076.66;;;9.46;100.00